sensor_id;sensor_type;location;lat;lon;timestamp;pressure;altitude;pressure_sealevel;temperature;humidity
17309;BME280;8772;42.804;23.426;2023-02-12T00:02:06;75984.88;;;-140.58;63.82
17309;BME280;8772;42.804;23.426;2023-02-12T00:04:33;75978.72;;;-140.58;63.92
17309;BME280;8772;42.804;23.426;2023-02-12T00:07:00;75984.88;;;-140.58;63.54
17309;BME280;8772;42.804;23.426;2023-02-12T00:09:29;75986.94;;;-140.58;63.56
17309;BME280;8772;42.804;23.426;2023-02-12T00:11:55;75997.19;;;-140.58;63.97
17309;BME280;8772;42.804;23.426;2023-02-12T00:14:22;76001.31;;;-140.58;64.38
17309;BME280;8772;42.804;23.426;2023-02-12T00:16:49;76005.41;;;-140.58;64.10
17309;BME280;8772;42.804;23.426;2023-02-12T00:19:16;76005.41;;;-140.58;64.61
17309;BME280;8772;42.804;23.426;2023-02-12T00:21:43;76005.41;;;-140.58;64.56
17309;BME280;8772;42.804;23.426;2023-02-12T00:24:10;76017.72;;;-140.58;64.95
17309;BME280;8772;42.804;23.426;2023-02-12T00:26:38;76025.94;;;-140.58;65.72
17309;BME280;8772;42.804;23.426;2023-02-12T00:29:05;76036.19;;;-140.58;66.42
17309;BME280;8772;42.804;23.426;2023-02-12T00:31:32;76036.19;;;-140.58;66.53
17309;BME280;8772;42.804;23.426;2023-02-12T00:33:59;76023.88;;;-140.58;66.51
17309;BME280;8772;42.804;23.426;2023-02-12T00:36:28;76032.09;;;-140.58;66.88
17309;BME280;8772;42.804;23.426;2023-02-12T00:38:55;76030.03;;;-140.58;67.10
17309;BME280;8772;42.804;23.426;2023-02-12T00:41:23;76023.88;;;-140.58;67.63
17309;BME280;8772;42.804;23.426;2023-02-12T00:43:51;76032.09;;;-140.58;69.19
17309;BME280;8772;42.804;23.426;2023-02-12T00:46:18;76040.31;;;-140.58;70.02
17309;BME280;8772;42.804;23.426;2023-02-12T00:48:45;76040.31;;;-140.58;71.21
17309;BME280;8772;42.804;23.426;2023-02-12T00:51:12;76048.50;;;-140.58;71.83
17309;BME280;8772;42.804;23.426;2023-02-12T00:53:39;76025.94;;;-140.58;71.24
17309;BME280;8772;42.804;23.426;2023-02-12T00:56:06;76038.25;;;-140.58;70.83
17309;BME280;8772;42.804;23.426;2023-02-12T00:58:33;76038.25;;;-140.58;70.89
17309;BME280;8772;42.804;23.426;2023-02-12T01:01:02;76042.34;;;-140.58;71.26
17309;BME280;8772;42.804;23.426;2023-02-12T01:06:51;76042.34;;;-140.58;71.42
17309;BME280;8772;42.804;23.426;2023-02-12T01:09:18;76038.25;;;-140.58;71.28
17309;BME280;8772;42.804;23.426;2023-02-12T01:11:45;76038.25;;;-140.58;71.81
17309;BME280;8772;42.804;23.426;2023-02-12T01:14:12;76017.72;;;-140.58;71.54
17309;BME280;8772;42.804;23.426;2023-02-12T01:16:40;76017.72;;;-140.58;71.17
17309;BME280;8772;42.804;23.426;2023-02-12T01:19:07;76009.50;;;-140.58;71.52
17309;BME280;8772;42.804;23.426;2023-02-12T01:21:34;75995.13;;;-140.58;71.43
17309;BME280;8772;42.804;23.426;2023-02-12T01:24:01;75986.94;;;-140.58;70.64
17309;BME280;8772;42.804;23.426;2023-02-12T01:26:29;76013.63;;;-140.58;70.88
17309;BME280;8772;42.804;23.426;2023-02-12T01:28:58;76021.81;;;-140.58;71.59
17309;BME280;8772;42.804;23.426;2023-02-12T01:31:28;76001.31;;;-140.58;71.04
17309;BME280;8772;42.804;23.426;2023-02-12T01:33:57;76021.81;;;-140.58;71.25
17309;BME280;8772;42.804;23.426;2023-02-12T01:36:25;76021.81;;;-140.58;72.86
17309;BME280;8772;42.804;23.426;2023-02-12T01:38:53;76017.72;;;-140.58;73.64
17309;BME280;8772;42.804;23.426;2023-02-12T01:41:22;76013.63;;;-140.58;74.16
17309;BME280;8772;42.804;23.426;2023-02-12T01:44:07;76025.94;;;-140.58;73.82
17309;BME280;8772;42.804;23.426;2023-02-12T01:46:35;76040.31;;;-140.58;76.23
17309;BME280;8772;42.804;23.426;2023-02-12T01:49:04;76030.03;;;-140.58;75.94
17309;BME280;8772;42.804;23.426;2023-02-12T01:51:34;76015.66;;;-140.58;75.52
17309;BME280;8772;42.804;23.426;2023-02-12T01:54:05;76009.50;;;-140.58;75.41
17309;BME280;8772;42.804;23.426;2023-02-12T01:56:33;76032.09;;;-140.58;77.09
17309;BME280;8772;42.804;23.426;2023-02-12T01:59:01;76038.25;;;-140.58;77.06
17309;BME280;8772;42.804;23.426;2023-02-12T02:01:29;76054.69;;;-140.58;77.05
17309;BME280;8772;42.804;23.426;2023-02-12T02:03:59;76064.94;;;-140.58;77.16
17309;BME280;8772;42.804;23.426;2023-02-12T02:06:31;76062.88;;;-140.58;77.52
17309;BME280;8772;42.804;23.426;2023-02-12T02:09:00;76046.47;;;-140.58;76.90
17309;BME280;8772;42.804;23.426;2023-02-12T02:11:27;76025.94;;;-140.58;76.81
17309;BME280;8772;42.804;23.426;2023-02-12T02:14:11;76038.25;;;-140.58;77.53
17309;BME280;8772;42.804;23.426;2023-02-12T02:17:04;76048.50;;;-140.58;77.39
17309;BME280;8772;42.804;23.426;2023-02-12T02:19:46;76044.41;;;-140.58;77.86
17309;BME280;8772;42.804;23.426;2023-02-12T02:22:28;76040.31;;;-140.58;76.89
17309;BME280;8772;42.804;23.426;2023-02-12T02:25:18;76046.47;;;-140.58;77.55
17309;BME280;8772;42.804;23.426;2023-02-12T02:28:02;76021.81;;;-140.58;76.50
17309;BME280;8772;42.804;23.426;2023-02-12T02:30:38;76013.63;;;-140.58;75.43
17309;BME280;8772;42.804;23.426;2023-02-12T02:33:17;76011.56;;;-140.58;74.88
17309;BME280;8772;42.804;23.426;2023-02-12T02:35:52;76025.94;;;-140.58;75.26
17309;BME280;8772;42.804;23.426;2023-02-12T02:38:30;76050.56;;;-140.58;76.42
17309;BME280;8772;42.804;23.426;2023-02-12T02:41:04;76069.03;;;-140.58;78.01
17309;BME280;8772;42.804;23.426;2023-02-12T02:43:36;76064.94;;;-140.58;78.04
17309;BME280;8772;42.804;23.426;2023-02-12T02:46:09;76036.19;;;-140.58;78.01
17309;BME280;8772;42.804;23.426;2023-02-12T02:48:38;76032.09;;;-140.58;78.46
17309;BME280;8772;42.804;23.426;2023-02-12T02:51:10;76017.72;;;-140.58;77.64
17309;BME280;8772;42.804;23.426;2023-02-12T02:53:40;75999.25;;;-140.58;76.51
17309;BME280;8772;42.804;23.426;2023-02-12T02:56:14;75988.97;;;-140.58;76.45
17309;BME280;8772;42.804;23.426;2023-02-12T02:58:45;75978.72;;;-140.58;77.72
17309;BME280;8772;42.804;23.426;2023-02-12T03:01:16;75980.78;;;-140.58;77.64
17309;BME280;8772;42.804;23.426;2023-02-12T03:03:48;75974.63;;;-140.58;77.23
17309;BME280;8772;42.804;23.426;2023-02-12T03:06:21;75958.19;;;-140.58;74.55
17309;BME280;8772;42.804;23.426;2023-02-12T03:08:54;75943.81;;;-140.58;72.73
17309;BME280;8772;42.804;23.426;2023-02-12T03:11:24;75931.50;;;-140.58;73.52
17309;BME280;8772;42.804;23.426;2023-02-12T03:13:55;75937.66;;;-140.58;74.74
17309;BME280;8772;42.804;23.426;2023-02-12T03:16:26;75923.28;;;-140.58;74.84
17309;BME280;8772;42.804;23.426;2023-02-12T03:18:58;75910.97;;;-140.58;75.23
17309;BME280;8772;42.804;23.426;2023-02-12T03:21:31;75945.88;;;-140.58;75.42
17309;BME280;8772;42.804;23.426;2023-02-12T03:24:03;75910.97;;;-140.58;75.40
17309;BME280;8772;42.804;23.426;2023-02-12T03:26:39;75904.81;;;-140.58;74.73
17309;BME280;8772;42.804;23.426;2023-02-12T03:29:09;75888.41;;;-140.58;73.29
17309;BME280;8772;42.804;23.426;2023-02-12T03:31:45;75886.34;;;-140.58;72.40
17309;BME280;8772;42.804;23.426;2023-02-12T03:34:29;75878.13;;;-140.58;71.91
17309;BME280;8772;42.804;23.426;2023-02-12T03:37:02;75845.28;;;-140.58;69.32
17309;BME280;8772;42.804;23.426;2023-02-12T03:39:36;75839.13;;;-140.58;69.77
17309;BME280;8772;42.804;23.426;2023-02-12T03:42:10;75845.28;;;-140.58;69.88
17309;BME280;8772;42.804;23.426;2023-02-12T03:44:49;75843.25;;;-140.58;69.04
17309;BME280;8772;42.804;23.426;2023-02-12T03:47:26;75841.19;;;-140.58;68.63
17309;BME280;8772;42.804;23.426;2023-02-12T03:50:00;75828.88;;;-140.58;68.24
17309;BME280;8772;42.804;23.426;2023-02-12T03:52:28;75847.34;;;-140.58;69.13
17309;BME280;8772;42.804;23.426;2023-02-12T03:54:56;75828.88;;;-140.58;67.44
17309;BME280;8772;42.804;23.426;2023-02-12T03:57:25;75812.44;;;-140.58;67.10
17309;BME280;8772;42.804;23.426;2023-02-12T03:59:55;75804.25;;;-140.58;66.14
17309;BME280;8772;42.804;23.426;2023-02-12T04:02:24;75804.25;;;-140.58;66.07
17309;BME280;8772;42.804;23.426;2023-02-12T04:04:51;75796.03;;;-140.58;66.18
17309;BME280;8772;42.804;23.426;2023-02-12T04:07:18;75783.72;;;-140.58;65.72
17309;BME280;8772;42.804;23.426;2023-02-12T04:09:44;75787.81;;;-140.58;66.29
17309;BME280;8772;42.804;23.426;2023-02-12T04:12:30;75791.94;;;-140.58;67.02
17309;BME280;8772;42.804;23.426;2023-02-12T04:15:09;75791.94;;;-140.58;66.39
17309;BME280;8772;42.804;23.426;2023-02-12T04:17:49;75800.13;;;-140.58;65.96
17309;BME280;8772;42.804;23.426;2023-02-12T04:20:25;75793.97;;;-140.58;65.83
17309;BME280;8772;42.804;23.426;2023-02-12T04:23:00;75789.88;;;-140.58;66.47
17309;BME280;8772;42.804;23.426;2023-02-12T04:25:42;75787.81;;;-140.58;66.42
17309;BME280;8772;42.804;23.426;2023-02-12T04:28:19;75808.34;;;-140.58;70.69
17309;BME280;8772;42.804;23.426;2023-02-12T04:30:55;75796.03;;;-140.58;70.37
17309;BME280;8772;42.804;23.426;2023-02-12T04:33:25;75783.72;;;-140.58;69.19
17309;BME280;8772;42.804;23.426;2023-02-12T04:35:59;75781.66;;;-140.58;68.93
17309;BME280;8772;42.804;23.426;2023-02-12T04:38:31;75798.09;;;-140.58;66.56
17309;BME280;8772;42.804;23.426;2023-02-12T04:40:59;75787.81;;;-140.58;66.19
17309;BME280;8772;42.804;23.426;2023-02-12T04:43:27;75804.25;;;-140.58;68.90
17309;BME280;8772;42.804;23.426;2023-02-12T04:45:54;75791.94;;;-140.58;69.30
17309;BME280;8772;42.804;23.426;2023-02-12T04:48:21;75791.94;;;-140.58;68.79
17309;BME280;8772;42.804;23.426;2023-02-12T04:50:50;75800.13;;;-140.58;68.53
17309;BME280;8772;42.804;23.426;2023-02-12T04:53:17;75808.34;;;-140.58;67.78
17309;BME280;8772;42.804;23.426;2023-02-12T04:55:44;75804.25;;;-140.58;66.31
17309;BME280;8772;42.804;23.426;2023-02-12T04:58:12;75796.03;;;-140.58;66.12
17309;BME280;8772;42.804;23.426;2023-02-12T05:00:39;75785.78;;;-140.58;66.72
17309;BME280;8772;42.804;23.426;2023-02-12T05:03:06;75796.03;;;-140.58;67.09
17309;BME280;8772;42.804;23.426;2023-02-12T05:05:33;75796.03;;;-140.58;68.10
17309;BME280;8772;42.804;23.426;2023-02-12T05:08:02;75796.03;;;-140.58;67.60
17309;BME280;8772;42.804;23.426;2023-02-12T05:10:29;75777.56;;;-140.58;66.33
17309;BME280;8772;42.804;23.426;2023-02-12T05:12:56;75783.72;;;-140.58;65.49
17309;BME280;8772;42.804;23.426;2023-02-12T05:15:23;75773.44;;;-140.58;63.64
17309;BME280;8772;42.804;23.426;2023-02-12T05:17:49;75789.88;;;-140.58;63.64
17309;BME280;8772;42.804;23.426;2023-02-12T05:20:16;75769.34;;;-140.58;62.28
17309;BME280;8772;42.804;23.426;2023-02-12T05:22:43;75775.50;;;-140.58;61.24
17309;BME280;8772;42.804;23.426;2023-02-12T05:25:11;75759.09;;;-140.58;60.80
17309;BME280;8772;42.804;23.426;2023-02-12T05:27:38;75759.09;;;-140.58;61.22
17309;BME280;8772;42.804;23.426;2023-02-12T05:30:06;75771.41;;;-140.58;60.50
17309;BME280;8772;42.804;23.426;2023-02-12T05:32:34;75767.28;;;-140.58;61.22
17309;BME280;8772;42.804;23.426;2023-02-12T05:35:01;75754.97;;;-140.58;61.02
17309;BME280;8772;42.804;23.426;2023-02-12T05:37:27;75746.78;;;-140.58;60.92
17309;BME280;8772;42.804;23.426;2023-02-12T05:39:55;75744.72;;;-140.58;60.23
17309;BME280;8772;42.804;23.426;2023-02-12T05:42:24;75736.50;;;-140.58;60.61
17309;BME280;8772;42.804;23.426;2023-02-12T05:44:51;75746.78;;;-140.58;60.71
17309;BME280;8772;42.804;23.426;2023-02-12T05:47:18;75738.56;;;-140.58;60.10
17309;BME280;8772;42.804;23.426;2023-02-12T05:49:45;75744.72;;;-140.58;61.04
17309;BME280;8772;42.804;23.426;2023-02-12T05:52:12;75746.78;;;-140.58;60.66
17309;BME280;8772;42.804;23.426;2023-02-12T05:54:39;75746.78;;;-140.58;60.09
17309;BME280;8772;42.804;23.426;2023-02-12T05:57:06;75738.56;;;-140.58;59.66
17309;BME280;8772;42.804;23.426;2023-02-12T05:59:34;75738.56;;;-140.58;60.37
17309;BME280;8772;42.804;23.426;2023-02-12T06:02:01;75748.81;;;-140.58;60.92
17309;BME280;8772;42.804;23.426;2023-02-12T06:04:28;75742.66;;;-140.58;60.82
17309;BME280;8772;42.804;23.426;2023-02-12T06:06:55;75734.44;;;-140.58;60.91
17309;BME280;8772;42.804;23.426;2023-02-12T06:09:23;75742.66;;;-140.58;60.58
17309;BME280;8772;42.804;23.426;2023-02-12T06:11:50;75744.72;;;-140.58;60.52
17309;BME280;8772;42.804;23.426;2023-02-12T06:14:18;75752.94;;;-140.58;60.50
17309;BME280;8772;42.804;23.426;2023-02-12T06:16:48;75742.66;;;-140.58;61.20
17309;BME280;8772;42.804;23.426;2023-02-12T06:19:15;75740.63;;;-140.58;60.96
17309;BME280;8772;42.804;23.426;2023-02-12T06:21:43;75734.44;;;-140.58;60.58
17309;BME280;8772;42.804;23.426;2023-02-12T06:24:11;75730.34;;;-140.58;60.09
17309;BME280;8772;42.804;23.426;2023-02-12T06:26:39;75726.25;;;-140.58;60.86
17309;BME280;8772;42.804;23.426;2023-02-12T06:29:06;75736.50;;;-140.58;61.64
17309;BME280;8772;42.804;23.426;2023-02-12T06:31:34;75738.56;;;-140.58;61.50
17309;BME280;8772;42.804;23.426;2023-02-12T06:34:05;75722.13;;;-140.58;60.99
17309;BME280;8772;42.804;23.426;2023-02-12T06:36:32;75724.19;;;-140.58;61.30
17309;BME280;8772;42.804;23.426;2023-02-12T06:39:00;75711.88;;;-140.58;61.05
17309;BME280;8772;42.804;23.426;2023-02-12T06:41:27;75713.94;;;-140.58;61.11
17309;BME280;8772;42.804;23.426;2023-02-12T06:43:54;75711.88;;;-140.58;61.60
17309;BME280;8772;42.804;23.426;2023-02-12T06:46:21;75703.66;;;-140.58;61.93
17309;BME280;8772;42.804;23.426;2023-02-12T06:48:52;75699.56;;;-140.58;62.43
17309;BME280;8772;42.804;23.426;2023-02-12T06:51:21;75705.72;;;-140.58;63.17
17309;BME280;8772;42.804;23.426;2023-02-12T06:53:48;75711.88;;;-140.58;63.83
17309;BME280;8772;42.804;23.426;2023-02-12T06:56:17;75703.66;;;-140.58;64.21
17309;BME280;8772;42.804;23.426;2023-02-12T06:58:45;75697.50;;;-140.58;64.27
17309;BME280;8772;42.804;23.426;2023-02-12T07:01:14;75689.28;;;-140.58;65.18
17309;BME280;8772;42.804;23.426;2023-02-12T07:03:43;75697.50;;;-140.58;65.69
17309;BME280;8772;42.804;23.426;2023-02-12T07:06:10;75699.56;;;-140.58;66.22
17309;BME280;8772;42.804;23.426;2023-02-12T07:08:38;75697.50;;;-140.58;66.61
17309;BME280;8772;42.804;23.426;2023-02-12T07:11:06;75697.50;;;-140.58;67.18
17309;BME280;8772;42.804;23.426;2023-02-12T07:13:33;75705.72;;;-140.58;67.79
17309;BME280;8772;42.804;23.426;2023-02-12T07:16:02;75699.56;;;-140.58;68.31
17309;BME280;8772;42.804;23.426;2023-02-12T07:18:30;75691.34;;;-140.58;69.43
17309;BME280;8772;42.804;23.426;2023-02-12T07:20:57;75699.56;;;-140.58;70.25
17309;BME280;8772;42.804;23.426;2023-02-12T07:23:24;75701.63;;;-140.58;73.13
17309;BME280;8772;42.804;23.426;2023-02-12T07:25:56;75697.50;;;-140.58;73.60
17309;BME280;8772;42.804;23.426;2023-02-12T07:28:24;75699.56;;;-140.58;73.96
17309;BME280;8772;42.804;23.426;2023-02-12T07:30:51;75691.34;;;-140.58;73.68
17309;BME280;8772;42.804;23.426;2023-02-12T07:33:18;75709.81;;;-140.58;74.19
17309;BME280;8772;42.804;23.426;2023-02-12T07:35:46;75709.81;;;-140.58;75.58
17309;BME280;8772;42.804;23.426;2023-02-12T07:38:12;75705.72;;;-140.58;76.01
17309;BME280;8772;42.804;23.426;2023-02-12T07:40:39;75705.72;;;-140.58;76.74
17309;BME280;8772;42.804;23.426;2023-02-12T07:43:08;75697.50;;;-140.58;75.59
17309;BME280;8772;42.804;23.426;2023-02-12T07:45:35;75705.72;;;-140.58;75.91
17309;BME280;8772;42.804;23.426;2023-02-12T07:48:02;75697.50;;;-140.58;76.06
17309;BME280;8772;42.804;23.426;2023-02-12T07:50:28;75695.44;;;-140.58;75.25
17309;BME280;8772;42.804;23.426;2023-02-12T07:52:55;75693.41;;;-140.58;75.28
17309;BME280;8772;42.804;23.426;2023-02-12T07:55:22;75685.19;;;-140.58;74.22
17309;BME280;8772;42.804;23.426;2023-02-12T07:57:50;75679.03;;;-140.58;72.72
17309;BME280;8772;42.804;23.426;2023-02-12T08:00:19;75674.94;;;-140.58;72.17
17309;BME280;8772;42.804;23.426;2023-02-12T08:02:50;75664.66;;;-140.58;70.41
17309;BME280;8772;42.804;23.426;2023-02-12T08:05:17;75670.81;;;-140.58;70.41
17309;BME280;8772;42.804;23.426;2023-02-12T08:07:44;75658.50;;;-140.58;69.94
17309;BME280;8772;42.804;23.426;2023-02-12T08:10:11;75662.63;;;-140.58;69.25
17309;BME280;8772;42.804;23.426;2023-02-12T08:12:38;75681.09;;;-140.58;67.98
17309;BME280;8772;42.804;23.426;2023-02-12T08:15:05;75658.50;;;-140.58;68.08
17309;BME280;8772;42.804;23.426;2023-02-12T08:17:34;75660.56;;;-140.58;67.02
17309;BME280;8772;42.804;23.426;2023-02-12T08:43:01;75562.03;;;-140.58;67.64
17309;BME280;8772;42.804;23.426;2023-02-12T08:45:28;75576.41;;;-140.58;68.49
17309;BME280;8772;42.804;23.426;2023-02-12T08:47:55;75582.56;;;-140.58;69.35
17309;BME280;8772;42.804;23.426;2023-02-12T08:50:22;75574.34;;;-140.58;70.15
17309;BME280;8772;42.804;23.426;2023-02-12T08:52:48;75570.25;;;-140.58;70.49
17309;BME280;8772;42.804;23.426;2023-02-12T08:55:15;75574.34;;;-140.58;70.62
17309;BME280;8772;42.804;23.426;2023-02-12T08:57:42;75574.34;;;-140.58;69.89
17309;BME280;8772;42.804;23.426;2023-02-12T09:00:12;75574.34;;;-140.58;70.87
17309;BME280;8772;42.804;23.426;2023-02-12T09:02:39;75549.72;;;-140.58;70.32
17309;BME280;8772;42.804;23.426;2023-02-12T09:05:06;75535.34;;;-140.58;67.69
17309;BME280;8772;42.804;23.426;2023-02-12T09:07:33;75529.19;;;-140.58;66.13
17309;BME280;8772;42.804;23.426;2023-02-12T09:10:00;75533.31;;;-140.58;66.75
17309;BME280;8772;42.804;23.426;2023-02-12T09:12:26;75521.00;;;-140.58;68.69
17309;BME280;8772;42.804;23.426;2023-02-12T09:14:53;75504.56;;;-140.58;66.84
17309;BME280;8772;42.804;23.426;2023-02-12T09:17:21;75479.94;;;-140.58;65.76
17309;BME280;8772;42.804;23.426;2023-02-12T09:19:51;75463.53;;;-140.58;65.85
17309;BME280;8772;42.804;23.426;2023-02-12T09:22:18;75455.31;;;-140.58;66.55
17309;BME280;8772;42.804;23.426;2023-02-12T09:24:45;75447.09;;;-140.58;65.41
17309;BME280;8772;42.804;23.426;2023-02-12T09:27:14;75424.53;;;-140.58;64.32
17309;BME280;8772;42.804;23.426;2023-02-12T09:29:41;75426.56;;;-140.58;63.71
17309;BME280;8772;42.804;23.426;2023-02-12T09:32:07;75422.47;;;-140.58;63.02
17309;BME280;8772;42.804;23.426;2023-02-12T09:34:36;75414.25;;;-140.58;63.03
17309;BME280;8772;42.804;23.426;2023-02-12T09:37:03;75414.25;;;-140.58;63.22
17309;BME280;8772;42.804;23.426;2023-02-12T09:39:30;75414.25;;;-140.58;62.55
17309;BME280;8772;42.804;23.426;2023-02-12T09:42:14;75418.38;;;-140.58;62.94
17309;BME280;8772;42.804;23.426;2023-02-12T09:44:50;75430.69;;;-140.58;63.40
17309;BME280;8772;42.804;23.426;2023-02-12T09:47:25;75418.38;;;-140.58;63.88
17309;BME280;8772;42.804;23.426;2023-02-12T09:50:04;75432.72;;;-140.58;64.04
17309;BME280;8772;42.804;23.426;2023-02-12T09:52:36;75416.31;;;-140.58;63.14
17309;BME280;8772;42.804;23.426;2023-02-12T09:55:04;75438.91;;;-140.58;63.84
17309;BME280;8772;42.804;23.426;2023-02-12T09:57:33;75443.00;;;-140.58;64.17
17309;BME280;8772;42.804;23.426;2023-02-12T10:00:04;75432.72;;;-140.58;64.63
17309;BME280;8772;42.804;23.426;2023-02-12T10:02:34;75422.47;;;-140.58;64.10
17309;BME280;8772;42.804;23.426;2023-02-12T10:05:03;75424.53;;;-140.58;64.10
17309;BME280;8772;42.804;23.426;2023-02-12T10:07:46;75410.16;;;-140.58;64.08
17309;BME280;8772;42.804;23.426;2023-02-12T10:10:27;75410.16;;;-140.58;63.38
17309;BME280;8772;42.804;23.426;2023-02-12T10:13:03;75406.06;;;-140.58;63.46
17309;BME280;8772;42.804;23.426;2023-02-12T10:15:35;75397.84;;;-140.58;62.61
17309;BME280;8772;42.804;23.426;2023-02-12T10:18:24;75393.75;;;-140.58;62.66
17309;BME280;8772;42.804;23.426;2023-02-12T10:21:09;75389.63;;;-140.58;62.88
17309;BME280;8772;42.804;23.426;2023-02-12T10:23:56;75393.75;;;-140.58;63.10
17309;BME280;8772;42.804;23.426;2023-02-12T10:26:29;75381.44;;;-140.58;63.45
17309;BME280;8772;42.804;23.426;2023-02-12T10:28:58;75373.22;;;-140.58;62.48
17309;BME280;8772;42.804;23.426;2023-02-12T10:31:31;75352.69;;;-140.58;62.45
17309;BME280;8772;42.804;23.426;2023-02-12T10:33:58;75348.59;;;-140.58;60.59
17309;BME280;8772;42.804;23.426;2023-02-12T10:36:41;75340.38;;;-140.58;60.84
17309;BME280;8772;42.804;23.426;2023-02-12T10:39:14;75336.28;;;-140.58;61.36
17309;BME280;8772;42.804;23.426;2023-02-12T10:41:51;75340.38;;;-140.58;61.70
17309;BME280;8772;42.804;23.426;2023-02-12T10:44:20;75340.38;;;-140.58;61.68
17309;BME280;8772;42.804;23.426;2023-02-12T10:46:47;75338.31;;;-140.58;61.08
17309;BME280;8772;42.804;23.426;2023-02-12T10:49:16;75342.44;;;-140.58;59.99
17309;BME280;8772;42.804;23.426;2023-02-12T10:52:07;75336.28;;;-140.58;59.94
17309;BME280;8772;42.804;23.426;2023-02-12T10:54:38;75332.16;;;-140.58;59.85
17309;BME280;8772;42.804;23.426;2023-02-12T10:57:19;75323.97;;;-140.58;60.07
17309;BME280;8772;42.804;23.426;2023-02-12T10:59:48;75326.00;;;-140.58;59.93
17309;BME280;8772;42.804;23.426;2023-02-12T11:02:22;75330.13;;;-140.58;60.36
17309;BME280;8772;42.804;23.426;2023-02-12T11:04:50;75307.53;;;-140.58;59.70
17309;BME280;8772;42.804;23.426;2023-02-12T11:07:19;75319.84;;;-140.58;60.28
17309;BME280;8772;42.804;23.426;2023-02-12T11:09:48;75307.53;;;-140.58;60.61
17309;BME280;8772;42.804;23.426;2023-02-12T11:12:23;75295.22;;;-140.58;59.72
17309;BME280;8772;42.804;23.426;2023-02-12T11:14:53;75287.03;;;-140.58;59.03
17309;BME280;8772;42.804;23.426;2023-02-12T11:17:24;75282.91;;;-140.58;59.31
17309;BME280;8772;42.804;23.426;2023-02-12T11:20:18;75280.84;;;-140.58;59.55
17309;BME280;8772;42.804;23.426;2023-02-12T11:22:56;75270.59;;;-140.58;59.10
17309;BME280;8772;42.804;23.426;2023-02-12T11:25:26;75266.50;;;-140.58;59.46
17309;BME280;8772;42.804;23.426;2023-02-12T11:28:02;75254.19;;;-140.58;59.06
17309;BME280;8772;42.804;23.426;2023-02-12T11:30:30;75248.03;;;-140.58;58.39
17309;BME280;8772;42.804;23.426;2023-02-12T11:33:16;75245.97;;;-140.58;58.97
17309;BME280;8772;42.804;23.426;2023-02-12T11:35:53;75235.72;;;-140.58;58.74
17309;BME280;8772;42.804;23.426;2023-02-12T11:38:26;75235.72;;;-140.58;58.32
17309;BME280;8772;42.804;23.426;2023-02-12T11:40:56;75227.50;;;-140.58;57.80
17309;BME280;8772;42.804;23.426;2023-02-12T11:43:26;75225.44;;;-140.58;56.75
17309;BME280;8772;42.804;23.426;2023-02-12T11:45:55;75225.44;;;-140.58;56.58
17309;BME280;8772;42.804;23.426;2023-02-12T11:48:26;75225.44;;;-140.58;56.10
17309;BME280;8772;42.804;23.426;2023-02-12T11:50:56;75221.34;;;-140.58;56.39
17309;BME280;8772;42.804;23.426;2023-02-12T11:53:28;75229.56;;;-140.58;56.84
17309;BME280;8772;42.804;23.426;2023-02-12T11:55:59;75233.66;;;-140.58;56.81
17309;BME280;8772;42.804;23.426;2023-02-12T11:58:28;75241.88;;;-140.58;57.58
17309;BME280;8772;42.804;23.426;2023-02-12T12:01:04;75233.66;;;-140.58;56.84
17309;BME280;8772;42.804;23.426;2023-02-12T12:03:37;75215.19;;;-140.58;56.36
17309;BME280;8772;42.804;23.426;2023-02-12T12:06:11;75219.28;;;-140.58;56.99
17309;BME280;8772;42.804;23.426;2023-02-12T12:08:50;75225.44;;;-140.58;57.72
17309;BME280;8772;42.804;23.426;2023-02-12T12:11:24;75221.34;;;-140.58;56.88
17309;BME280;8772;42.804;23.426;2023-02-12T12:13:57;75215.19;;;-140.58;56.07
17309;BME280;8772;42.804;23.426;2023-02-12T12:16:29;75237.75;;;-140.58;56.07
17309;BME280;8772;42.804;23.426;2023-02-12T12:19:20;75245.97;;;-140.58;57.10
17309;BME280;8772;42.804;23.426;2023-02-12T12:22:15;75241.88;;;-140.58;57.06
17309;BME280;8772;42.804;23.426;2023-02-12T12:24:51;75250.06;;;-140.58;56.61
17309;BME280;8772;42.804;23.426;2023-02-12T12:27:24;75241.88;;;-140.58;56.53
17309;BME280;8772;42.804;23.426;2023-02-12T12:30:15;75233.66;;;-140.58;56.20
17309;BME280;8772;42.804;23.426;2023-02-12T12:32:46;75225.44;;;-140.58;55.97
17309;BME280;8772;42.804;23.426;2023-02-12T12:35:18;75237.75;;;-140.58;56.81
17309;BME280;8772;42.804;23.426;2023-02-12T12:37:52;75241.88;;;-140.58;56.51
17309;BME280;8772;42.804;23.426;2023-02-12T12:40:39;75250.06;;;-140.58;56.33
17309;BME280;8772;42.804;23.426;2023-02-12T12:43:13;75241.88;;;-140.58;56.63
17309;BME280;8772;42.804;23.426;2023-02-12T12:46:06;75264.44;;;-140.58;56.51
17309;BME280;8772;42.804;23.426;2023-02-12T12:48:47;75245.97;;;-140.58;56.37
17309;BME280;8772;42.804;23.426;2023-02-12T12:51:31;75237.75;;;-140.58;56.24
17309;BME280;8772;42.804;23.426;2023-02-12T12:54:11;75229.56;;;-140.58;56.05
17309;BME280;8772;42.804;23.426;2023-02-12T12:56:52;75221.34;;;-140.58;55.80
17309;BME280;8772;42.804;23.426;2023-02-12T12:59:44;75219.28;;;-140.58;56.81
17309;BME280;8772;42.804;23.426;2023-02-12T13:02:33;75200.81;;;-140.58;55.72
17309;BME280;8772;42.804;23.426;2023-02-12T13:08:37;75204.94;;;-140.58;55.01
17309;BME280;8772;42.804;23.426;2023-02-12T13:11:14;75204.94;;;-140.58;54.22
17309;BME280;8772;42.804;23.426;2023-02-12T13:14:02;75213.13;;;-140.58;54.38
17309;BME280;8772;42.804;23.426;2023-02-12T13:16:40;75213.13;;;-140.58;54.20
17309;BME280;8772;42.804;23.426;2023-02-12T13:19:17;75229.56;;;-140.58;54.44
17309;BME280;8772;42.804;23.426;2023-02-12T13:21:51;75229.56;;;-140.58;55.21
17309;BME280;8772;42.804;23.426;2023-02-12T13:24:26;75245.97;;;-140.58;54.55
17309;BME280;8772;42.804;23.426;2023-02-12T13:26:58;75262.38;;;-140.58;54.93
17309;BME280;8772;42.804;23.426;2023-02-12T13:29:31;75258.28;;;-140.58;55.14
17309;BME280;8772;42.804;23.426;2023-02-12T13:32:02;75250.06;;;-140.58;54.63